createdAt,value
2016-04-15T00:00:43.051Z,984.56
2016-04-15T00:01:43.038Z,984.52
2016-04-15T00:02:43.040Z,984.48
2016-04-15T00:03:43.043Z,984.49
2016-04-15T00:04:43.046Z,984.49
2016-04-15T00:05:43.032Z,984.48
2016-04-15T00:06:43.035Z,984.46
2016-04-15T00:07:43.038Z,984.48
2016-04-15T00:08:43.040Z,984.36
2016-04-15T00:09:43.028Z,984.4
2016-04-15T00:10:43.031Z,984.35
2016-04-15T00:11:43.018Z,984.33
2016-04-15T00:12:43.037Z,984.26
2016-04-15T00:13:43.023Z,984.24
2016-04-15T00:14:43.026Z,984.19
2016-04-15T00:15:43.028Z,984.16
2016-04-15T00:16:43.016Z,984.13
2016-04-15T00:17:43.019Z,984.16
2016-04-15T00:18:43.005Z,984.16
2016-04-15T00:19:43.024Z,984.13
2016-04-15T00:20:43.010Z,984.07
2016-04-15T00:21:43.013Z,984.1
2016-04-15T00:22:43.016Z,984.04
2016-04-15T00:23:43.002Z,984.05
2016-04-15T00:24:43.005Z,984.09
2016-04-15T00:25:43.008Z,984.12
2016-04-15T00:26:42.996Z,984.11
2016-04-15T00:27:42.999Z,984.13
2016-04-15T00:28:43.001Z,984.03
2016-04-15T00:29:43.004Z,984.02
2016-04-15T00:30:42.990Z,984.05
2016-04-15T00:31:42.993Z,984.03
2016-04-15T00:32:42.981Z,984.06
2016-04-15T00:33:42.984Z,984.06
2016-04-15T00:34:42.986Z,984.02
2016-04-15T00:35:42.982Z,984.06
2016-04-15T00:36:42.984Z,984.03
2016-04-15T00:37:42.987Z,984.03
2016-04-15T00:38:42.973Z,984.03
2016-04-15T00:39:42.976Z,984
2016-04-15T00:40:42.979Z,984.01
2016-04-15T00:41:42.981Z,984.01
2016-04-15T00:42:42.984Z,983.97
2016-04-15T00:43:42.986Z,983.96
2016-04-15T00:44:42.989Z,983.94
2016-04-15T00:45:42.976Z,983.95
2016-04-15T00:46:42.964Z,983.9
2016-04-15T00:47:42.967Z,983.87
2016-04-15T00:48:42.970Z,983.8
2016-04-15T00:49:42.972Z,983.79
2016-04-15T00:50:42.975Z,983.77
2016-04-15T00:51:42.978Z,983.73
2016-04-15T00:52:42.980Z,983.72
2016-04-15T00:53:42.967Z,983.72
2016-04-15T00:54:42.969Z,983.69
2016-04-15T00:55:42.956Z,983.65
2016-04-15T00:56:42.958Z,983.61
2016-04-15T00:57:42.961Z,983.56
2016-04-15T00:58:42.964Z,983.63
2016-04-15T00:59:42.951Z,983.62
2016-04-15T01:00:42.969Z,983.6
2016-04-15T01:01:42.957Z,983.64
2016-04-15T01:02:42.944Z,983.61
2016-04-15T01:03:42.963Z,983.59
2016-04-15T01:04:42.949Z,983.61
2016-04-15T01:05:42.952Z,983.57
2016-04-15T01:06:42.954Z,983.58
2016-04-15T01:07:42.942Z,983.57
2016-04-15T01:08:42.945Z,983.56
2016-04-15T01:09:42.948Z,983.52
2016-04-15T01:10:42.950Z,983.53
2016-04-15T01:11:42.937Z,983.49
2016-04-15T01:12:42.939Z,983.49
2016-04-15T01:13:42.942Z,983.46
2016-04-15T01:14:42.945Z,983.49
2016-04-15T01:15:42.931Z,983.49
2016-04-15T01:16:42.935Z,983.53
2016-04-15T01:17:42.937Z,983.55
2016-04-15T01:18:42.940Z,983.53
2016-04-15T01:19:42.928Z,983.51
2016-04-15T01:20:42.930Z,983.48
2016-04-15T01:21:42.933Z,983.46
2016-04-15T01:22:42.935Z,983.48
2016-04-15T01:23:42.938Z,983.46
2016-04-15T01:24:42.925Z,983.45
2016-04-15T01:25:42.927Z,983.42
2016-04-15T01:26:42.931Z,983.39
2016-04-15T01:27:42.933Z,983.41
2016-04-15T01:28:42.936Z,983.42
2016-04-15T01:29:43.033Z,983.37
2016-04-15T01:30:42.925Z,983.41
2016-04-15T01:31:42.928Z,983.44
2016-04-15T01:32:42.915Z,983.41
2016-04-15T01:33:42.933Z,983.45
2016-04-15T01:34:42.921Z,983.42
2016-04-15T01:35:42.924Z,983.44
2016-04-15T01:36:42.926Z,983.46
2016-04-15T01:37:42.929Z,983.38
2016-04-15T01:38:42.915Z,983.35
2016-04-15T01:39:42.934Z,983.31
2016-04-15T01:40:42.921Z,983.35
2016-04-15T01:41:42.908Z,983.35
2016-04-15T01:42:42.912Z,983.32
2016-04-15T01:43:42.914Z,983.27
2016-04-15T01:44:42.917Z,983.27
2016-04-15T01:45:42.920Z,983.29
2016-04-15T01:46:42.906Z,983.28
2016-04-15T01:47:42.909Z,983.23
2016-04-15T01:48:42.911Z,983.24
2016-04-15T01:49:42.914Z,983.21
2016-04-15T01:50:42.917Z,983.26
2016-04-15T01:51:42.903Z,983.26
2016-04-15T01:52:42.906Z,983.29
2016-04-15T01:53:42.908Z,983.27
2016-04-15T01:54:42.911Z,983.25
2016-04-15T01:55:42.899Z,983.3
2016-04-15T01:56:42.901Z,983.23
2016-04-15T01:57:42.905Z,983.28
2016-04-15T01:58:42.891Z,983.29
2016-04-15T01:59:42.894Z,983.25
2016-04-15T02:00:42.897Z,983.27
2016-04-15T02:01:42.900Z,983.24
2016-04-15T02:02:42.886Z,983.26
2016-04-15T02:03:42.905Z,983.27
2016-04-15T02:04:42.891Z,983.19
2016-04-15T02:05:42.957Z,983.2
2016-04-15T02:06:42.882Z,983.18
2016-04-15T02:07:42.885Z,983.18
2016-04-15T02:08:42.888Z,983.18
2016-04-15T02:09:42.874Z,983.12
2016-04-15T02:10:42.877Z,983.14
2016-04-15T02:11:42.880Z,983.11
2016-04-15T02:12:42.882Z,983.06
2016-04-15T02:13:42.885Z,983.05
2016-04-15T02:14:42.887Z,983.04
2016-04-15T02:15:42.875Z,983.01
2016-04-15T02:16:42.878Z,983.1
2016-04-15T02:17:42.880Z,983.06
2016-04-15T02:18:42.883Z,983.1
2016-04-15T02:19:42.869Z,983.13
2016-04-15T02:20:42.872Z,983.16
2016-04-15T02:21:42.875Z,983.24
2016-04-15T02:22:42.861Z,983.22
2016-04-15T02:23:42.865Z,983.23
2016-04-15T02:24:42.852Z,983.23
2016-04-15T02:25:42.855Z,983.24
2016-04-15T02:26:42.858Z,983.19
2016-04-15T02:27:42.860Z,983.21
2016-04-15T02:28:42.863Z,983.21
2016-04-15T02:29:42.850Z,983.23
2016-04-15T02:30:42.852Z,983.24
2016-04-15T02:31:42.855Z,983.22
2016-04-15T02:32:42.858Z,983.25
2016-04-15T02:33:42.844Z,983.24
2016-04-15T02:34:42.847Z,983.18
2016-04-15T02:35:42.849Z,983.09
2016-04-15T02:36:42.852Z,983.06
2016-04-15T02:37:42.840Z,983.05
2016-04-15T02:38:42.843Z,983.01
2016-04-15T02:39:42.830Z,982.95
2016-04-15T02:40:42.832Z,982.9
2016-04-15T02:41:42.835Z,982.84
2016-04-15T02:42:42.854Z,982.87
2016-04-15T02:43:42.840Z,982.85
2016-04-15T02:44:42.843Z,982.81
2016-04-15T02:45:42.845Z,982.85
2016-04-15T02:46:42.833Z,982.88
2016-04-15T02:47:42.836Z,982.82
2016-04-15T02:48:42.839Z,982.81
2016-04-15T02:49:42.842Z,982.79
2016-04-15T02:50:42.845Z,982.77
2016-04-15T02:51:42.831Z,982.79
2016-04-15T02:52:42.834Z,982.75
2016-04-15T02:53:42.837Z,982.74
2016-04-15T02:54:42.823Z,982.72
2016-04-15T02:55:42.826Z,982.74
2016-04-15T02:56:42.828Z,982.72
2016-04-15T02:57:42.816Z,982.73
2016-04-15T02:58:42.819Z,982.71
2016-04-15T02:59:42.821Z,982.68
2016-04-15T03:00:42.824Z,982.65
2016-04-15T03:01:42.811Z,982.57
2016-04-15T03:02:42.814Z,982.54
2016-04-15T03:03:42.816Z,982.53
2016-04-15T03:04:42.803Z,982.51
2016-04-15T03:05:42.806Z,982.45
2016-04-15T03:06:42.808Z,982.48
2016-04-15T03:07:42.811Z,982.44
2016-04-15T03:08:42.814Z,982.48
2016-04-15T03:09:42.801Z,982.45
2016-04-15T03:10:42.804Z,982.44
2016-04-15T03:11:42.806Z,982.35
2016-04-15T03:12:42.809Z,982.31
2016-04-15T03:13:42.812Z,982.32
2016-04-15T03:14:42.798Z,982.3
2016-04-15T03:15:42.801Z,982.25
2016-04-15T03:16:42.804Z,982.26
2016-04-15T03:17:42.791Z,982.19
2016-04-15T03:18:42.794Z,982.22
2016-04-15T03:19:42.797Z,982.14
2016-04-15T03:20:42.784Z,982.12
2016-04-15T03:21:42.787Z,982.14
2016-04-15T03:22:42.789Z,982.14
2016-04-15T03:23:42.792Z,982.12
2016-04-15T03:24:42.795Z,982.08
2016-04-15T03:25:42.813Z,982.05
2016-04-15T03:26:42.800Z,982.06
2016-04-15T03:27:42.786Z,982.02
2016-04-15T03:28:42.774Z,981.98
2016-04-15T03:29:42.777Z,981.99
2016-04-15T03:30:42.795Z,982
2016-04-15T03:31:42.783Z,982.01
2016-04-15T03:32:42.800Z,981.98
2016-04-15T03:33:42.788Z,982.04
2016-04-15T03:34:42.775Z,982.02
2016-04-15T03:35:42.777Z,982.07
2016-04-15T03:36:42.780Z,982
2016-04-15T03:37:42.766Z,982.04
2016-04-15T03:38:42.769Z,982.01
2016-04-15T03:39:42.772Z,981.98
2016-04-15T03:40:42.760Z,981.96
2016-04-15T03:41:42.762Z,981.89
2016-04-15T03:42:42.765Z,981.93
2016-04-15T03:43:42.768Z,981.9
2016-04-15T03:44:42.770Z,981.91
2016-04-15T03:45:42.773Z,981.9
2016-04-15T03:46:42.760Z,981.87
2016-04-15T03:47:42.763Z,981.85
2016-04-15T03:48:42.765Z,981.81
2016-04-15T03:49:42.768Z,981.85
2016-04-15T03:50:42.755Z,981.85
2016-04-15T03:51:42.758Z,981.81
2016-04-15T03:52:42.761Z,981.79
2016-04-15T03:53:42.747Z,981.81
2016-04-15T03:54:42.750Z,981.76
2016-04-15T03:55:42.894Z,981.79
2016-04-15T03:56:42.755Z,981.78
2016-04-15T03:57:42.742Z,981.81
2016-04-15T03:58:42.744Z,981.73
2016-04-15T03:59:42.747Z,981.79
2016-04-15T04:00:42.750Z,981.71
2016-04-15T04:01:42.753Z,981.72
2016-04-15T04:02:42.741Z,981.73
2016-04-15T04:03:42.743Z,981.72
2016-04-15T04:04:42.746Z,981.76
2016-04-15T04:05:42.749Z,981.75
2016-04-15T04:06:42.751Z,981.74
2016-04-15T04:07:42.738Z,981.71
2016-04-15T04:08:42.741Z,981.71
2016-04-15T04:09:42.743Z,981.68
2016-04-15T04:10:42.730Z,981.7
2016-04-15T04:11:42.733Z,981.68
2016-04-15T04:12:42.736Z,981.69
2016-04-15T04:13:42.738Z,981.66
2016-04-15T04:14:42.726Z,981.61
2016-04-15T04:15:42.729Z,981.59
2016-04-15T04:16:42.731Z,981.59
2016-04-15T04:17:42.734Z,981.59
2016-04-15T04:18:42.737Z,981.56
2016-04-15T04:19:42.723Z,981.57
2016-04-15T04:20:42.726Z,981.55
2016-04-15T04:21:42.729Z,981.51
2016-04-15T04:22:42.716Z,981.52
2016-04-15T04:23:42.719Z,981.55
2016-04-15T04:24:42.721Z,981.46
2016-04-15T04:25:42.724Z,981.46
2016-04-15T04:26:42.727Z,981.47
2016-04-15T04:27:42.714Z,981.47
2016-04-15T04:28:42.717Z,981.43
2016-04-15T04:29:42.720Z,981.48
2016-04-15T04:30:42.722Z,981.45
2016-04-15T04:31:42.725Z,981.46
2016-04-15T04:32:42.728Z,981.55
2016-04-15T04:33:42.714Z,981.57
2016-04-15T04:34:42.717Z,981.57
2016-04-15T04:35:42.719Z,981.67
2016-04-15T04:36:42.722Z,981.68
2016-04-15T04:37:42.710Z,981.74
2016-04-15T04:38:42.712Z,981.7
2016-04-15T04:39:42.715Z,981.68
2016-04-15T04:40:42.717Z,981.63
2016-04-15T04:41:42.704Z,981.65
2016-04-15T04:42:42.707Z,981.67
2016-04-15T04:43:42.710Z,981.59
2016-04-15T04:44:42.713Z,981.67
2016-04-15T04:45:42.715Z,981.74
2016-04-15T04:46:42.702Z,981.66
2016-04-15T04:47:42.705Z,981.69
2016-04-15T04:48:42.707Z,981.7
2016-04-15T04:49:42.710Z,981.67
2016-04-15T04:50:42.697Z,981.67
2016-04-15T04:51:42.701Z,981.77
2016-04-15T04:52:42.696Z,981.72
2016-04-15T04:53:42.704Z,981.75
2016-04-15T04:54:43.746Z,981.78
2016-04-15T04:55:42.698Z,981.76
2016-04-15T04:56:42.701Z,981.78
2016-04-15T04:57:42.688Z,981.84
2016-04-15T04:58:42.691Z,981.88
2016-04-15T04:59:42.694Z,981.86
2016-04-15T05:00:42.790Z,981.87
2016-04-15T05:01:42.699Z,981.85
2016-04-15T05:02:42.686Z,981.84
2016-04-15T05:03:42.689Z,981.89
2016-04-15T05:04:42.691Z,981.89
2016-04-15T05:05:42.694Z,981.96
2016-04-15T05:06:42.696Z,981.96
2016-04-15T05:07:42.683Z,982
2016-04-15T05:08:42.686Z,981.98
2016-04-15T05:09:42.688Z,981.97
2016-04-15T05:10:42.692Z,982
2016-04-15T05:11:42.694Z,981.99
2016-04-15T05:12:42.697Z,981.96
2016-04-15T05:13:42.685Z,981.96
2016-04-15T05:14:42.702Z,981.98
2016-04-15T05:15:42.705Z,981.99
2016-04-15T05:16:42.677Z,982.01
2016-04-15T05:17:42.679Z,982.01
2016-04-15T05:18:42.682Z,982.06
2016-04-15T05:19:42.684Z,982.04
2016-04-15T05:20:42.671Z,982.09
2016-04-15T05:21:42.674Z,982.07
2016-04-15T05:22:42.692Z,982.06
2016-04-15T05:23:42.679Z,982.1
2016-04-15T05:24:42.667Z,982.08
2016-04-15T05:25:42.669Z,982.06
2016-04-15T05:26:42.672Z,982.04
2016-04-15T05:27:42.675Z,982.12
2016-04-15T05:28:42.662Z,982.13
2016-04-15T05:29:42.681Z,982.16
2016-04-15T05:30:42.808Z,982.2
2016-04-15T05:31:42.670Z,982.23
2016-04-15T05:32:42.672Z,982.22
2016-04-15T05:33:42.675Z,982.25
2016-04-15T05:34:42.663Z,982.22
2016-04-15T05:35:42.665Z,982.19
2016-04-15T05:36:42.669Z,982.22
2016-04-15T05:37:42.671Z,982.21
2016-04-15T05:38:42.674Z,982.23
2016-04-15T05:39:42.661Z,982.25
2016-04-15T05:40:42.679Z,982.19
2016-04-15T05:41:42.666Z,982.11
2016-04-15T05:42:42.668Z,982.19
2016-04-15T05:43:42.671Z,982.18
2016-04-15T05:44:42.674Z,982.19
2016-04-15T05:45:42.660Z,982.19
2016-04-15T05:46:42.663Z,982.24
2016-04-15T05:47:42.666Z,982.26
2016-04-15T05:48:42.668Z,982.3
2016-04-15T05:49:42.671Z,982.27
2016-04-15T05:50:42.659Z,982.31
2016-04-15T05:51:42.661Z,982.37
2016-04-15T05:52:42.665Z,982.36
2016-04-15T05:53:42.667Z,982.38
2016-04-15T05:54:42.670Z,982.34
2016-04-15T05:55:42.657Z,982.32
2016-04-15T05:56:42.659Z,982.31
2016-04-15T05:57:42.662Z,982.29
2016-04-15T05:58:42.664Z,982.24
2016-04-15T05:59:42.667Z,982.29
2016-04-15T06:00:42.670Z,982.32
2016-04-15T06:01:42.672Z,982.34
2016-04-15T06:02:42.659Z,982.39
2016-04-15T06:03:42.661Z,982.5
2016-04-15T06:04:42.711Z,982.52
2016-04-15T06:05:42.699Z,982.59
2016-04-15T06:06:42.654Z,982.6
2016-04-15T06:07:42.657Z,982.62
2016-04-15T06:08:42.644Z,982.69
2016-04-15T06:09:42.663Z,982.74
2016-04-15T06:10:42.650Z,982.77
2016-04-15T06:11:42.653Z,982.77
2016-04-15T06:12:42.655Z,982.75
2016-04-15T06:13:42.643Z,982.74
2016-04-15T06:14:42.645Z,982.71
2016-04-15T06:15:42.648Z,982.7
2016-04-15T06:16:42.651Z,982.67
2016-04-15T06:17:42.653Z,982.68
2016-04-15T06:18:42.640Z,982.62
2016-04-15T06:19:42.659Z,982.56
2016-04-15T06:20:42.662Z,982.55
2016-04-15T06:21:42.654Z,982.63
2016-04-15T06:22:42.658Z,982.7
2016-04-15T06:23:42.645Z,982.75
2016-04-15T06:24:42.648Z,982.75
2016-04-15T06:25:42.650Z,982.83
2016-04-15T06:26:42.653Z,982.79
2016-04-15T06:27:42.644Z,982.77
2016-04-15T06:28:42.647Z,982.78
2016-04-15T06:29:42.649Z,982.76
2016-04-15T06:30:42.652Z,982.76
2016-04-15T06:31:42.655Z,982.8
2016-04-15T06:32:42.643Z,982.77
2016-04-15T06:33:42.646Z,982.79
2016-04-15T06:34:42.649Z,982.86
2016-04-15T06:35:42.744Z,982.84
2016-04-15T06:36:42.654Z,982.83
2016-04-15T06:37:42.657Z,982.86
2016-04-15T06:38:42.659Z,982.9
2016-04-15T06:39:42.646Z,982.9
2016-04-15T06:40:42.664Z,982.84
2016-04-15T06:41:42.667Z,982.84
2016-04-15T06:42:42.685Z,982.85
2016-04-15T06:43:42.656Z,982.86
2016-04-15T06:44:42.659Z,982.88
2016-04-15T06:45:42.645Z,982.91
2016-04-15T06:46:42.648Z,982.93
2016-04-15T06:47:42.651Z,982.96
2016-04-15T06:48:42.653Z,982.97
2016-04-15T06:49:42.642Z,982.93
2016-04-15T06:50:42.659Z,982.97
2016-04-15T06:51:42.647Z,982.94
2016-04-15T06:52:42.650Z,982.97
2016-04-15T06:53:42.636Z,982.99
2016-04-15T06:54:42.639Z,983.02
2016-04-15T06:55:42.657Z,983.03
2016-04-15T06:56:42.644Z,983.04
2016-04-15T06:57:42.647Z,983.05
2016-04-15T06:58:42.650Z,983.05
2016-04-15T06:59:42.653Z,983.04
2016-04-15T07:00:42.656Z,983.04
2016-04-15T07:01:42.658Z,983.02
2016-04-15T07:02:42.661Z,983
2016-04-15T07:03:42.648Z,983.01
2016-04-15T07:04:42.651Z,982.99
2016-04-15T07:05:42.654Z,982.98
2016-04-15T07:06:42.656Z,983
2016-04-15T07:07:42.659Z,983.01
2016-04-15T07:08:42.662Z,983.01
2016-04-15T07:09:42.648Z,983.02
2016-04-15T07:10:42.651Z,983.01
2016-04-15T07:11:42.653Z,983.01
2016-04-15T07:12:42.656Z,982.96
2016-04-15T07:13:42.675Z,982.93
2016-04-15T07:14:42.662Z,982.88
2016-04-15T07:15:42.665Z,982.89
2016-04-15T07:16:42.667Z,982.9
2016-04-15T07:17:42.654Z,982.9
2016-04-15T07:18:42.657Z,982.88
2016-04-15T07:19:42.660Z,982.88
2016-04-15T07:20:42.662Z,982.91
2016-04-15T07:21:42.669Z,982.89
2016-04-15T07:22:42.672Z,982.91
2016-04-15T07:23:42.675Z,982.91
2016-04-15T07:24:42.662Z,982.93
2016-04-15T07:25:42.680Z,982.96
2016-04-15T07:26:42.651Z,982.98
2016-04-15T07:27:42.675Z,982.97
2016-04-15T07:28:42.663Z,982.98
2016-04-15T07:29:42.665Z,983
2016-04-15T07:30:42.652Z,982.99
2016-04-15T07:31:42.671Z,983.02
2016-04-15T07:32:42.657Z,983.09
2016-04-15T07:33:42.660Z,983.1
2016-04-15T07:34:42.662Z,983.12
2016-04-15T07:35:42.665Z,983.13
2016-04-15T07:36:42.668Z,983.16
2016-04-15T07:37:42.686Z,983.18
2016-04-15T07:38:42.658Z,983.2
2016-04-15T07:39:42.661Z,983.27
2016-04-15T07:40:42.647Z,983.23
2016-04-15T07:41:42.667Z,983.26
2016-04-15T07:42:42.653Z,983.23
2016-04-15T07:43:42.687Z,983.24
2016-04-15T07:44:42.675Z,983.24
2016-04-15T07:45:42.677Z,983.26
2016-04-15T07:46:42.680Z,983.23
2016-04-15T07:47:42.666Z,983.24
2016-04-15T07:48:42.669Z,983.24
2016-04-15T07:49:42.672Z,983.28
2016-04-15T07:50:42.658Z,983.34
2016-04-15T07:51:42.677Z,983.4
2016-04-15T07:52:42.679Z,983.36
2016-04-15T07:53:42.651Z,983.44
2016-04-15T07:54:42.654Z,983.49
2016-04-15T07:55:42.671Z,983.52
2016-04-15T07:56:42.675Z,983.59
2016-04-15T07:57:42.662Z,983.53
2016-04-15T07:58:42.649Z,983.58
2016-04-15T07:59:42.667Z,983.61
2016-04-15T08:00:42.685Z,983.66
2016-04-15T08:01:42.657Z,983.71
2016-04-15T08:02:42.659Z,983.74
2016-04-15T08:03:42.678Z,983.68
2016-04-15T08:04:42.665Z,983.66
2016-04-15T08:05:42.668Z,983.66
2016-04-15T08:06:42.671Z,983.6
2016-04-15T08:07:42.659Z,983.61
2016-04-15T08:08:42.661Z,983.65
2016-04-15T08:09:42.664Z,983.64
2016-04-15T08:10:42.666Z,983.62
2016-04-15T08:11:42.669Z,983.58
2016-04-15T08:12:42.672Z,983.48
2016-04-15T08:13:42.674Z,983.49
2016-04-15T08:14:42.677Z,983.38
2016-04-15T08:15:42.663Z,983.31
2016-04-15T08:16:42.667Z,983.27
2016-04-15T08:17:42.653Z,983.25
2016-04-15T08:18:42.656Z,983.24
2016-04-15T08:19:42.659Z,983.23
2016-04-15T08:20:42.661Z,983.27
2016-04-15T08:21:42.686Z,983.23
2016-04-15T08:22:42.657Z,983.36
2016-04-15T08:23:42.675Z,983.43
2016-04-15T08:24:42.662Z,983.44
2016-04-15T08:25:42.680Z,983.45
2016-04-15T08:26:42.667Z,983.46
2016-04-15T08:27:42.670Z,983.42
2016-04-15T08:28:42.672Z,983.37
2016-04-15T08:29:42.676Z,983.32
2016-04-15T08:30:42.678Z,983.26
2016-04-15T08:31:42.686Z,983.28
2016-04-15T08:32:42.731Z,983.35
2016-04-15T08:33:43.026Z,983.36
2016-04-15T08:34:42.821Z,983.46
2016-04-15T08:35:42.852Z,983.5
2016-04-15T08:36:42.894Z,983.56
2016-04-15T08:37:42.912Z,983.55
2016-04-15T08:38:42.930Z,983.58
2016-04-15T08:39:42.932Z,983.54
2016-04-15T08:40:42.966Z,983.56
2016-04-15T08:41:42.967Z,983.54
2016-04-15T08:42:42.975Z,983.56
2016-04-15T08:43:42.999Z,983.55
2016-04-15T08:44:42.992Z,983.53
2016-04-15T08:45:43.000Z,983.59
2016-04-15T08:46:43.007Z,983.64
2016-04-15T08:47:43.012Z,983.65
2016-04-15T08:48:43.001Z,983.72
2016-04-15T08:49:43.021Z,983.77
2016-04-15T08:50:43.025Z,983.72
2016-04-15T08:51:43.015Z,983.77
2016-04-15T08:52:43.019Z,983.77
2016-04-15T08:53:43.022Z,983.8
2016-04-15T08:54:43.026Z,983.79
2016-04-15T08:55:43.029Z,983.74
2016-04-15T08:56:43.032Z,983.65
2016-04-15T08:57:43.019Z,983.6
2016-04-15T08:58:43.022Z,983.55
2016-04-15T08:59:43.042Z,983.47
2016-04-15T09:00:43.028Z,983.4
2016-04-15T09:01:43.031Z,983.38
2016-04-15T09:02:43.050Z,983.41
2016-04-15T09:03:43.021Z,983.4
2016-04-15T09:04:43.024Z,983.47
2016-04-15T09:05:43.043Z,983.57
2016-04-15T09:06:43.045Z,983.61
2016-04-15T09:07:43.032Z,983.66
2016-04-15T09:08:43.034Z,983.76
2016-04-15T09:09:43.037Z,983.8
2016-04-15T09:10:43.040Z,983.8
2016-04-15T09:11:43.042Z,983.85
2016-04-15T09:12:43.030Z,983.85
2016-04-15T09:13:43.032Z,983.84
2016-04-15T09:14:43.050Z,983.81
2016-04-15T09:15:43.053Z,983.84
2016-04-15T09:16:43.041Z,983.84
2016-04-15T09:17:43.044Z,983.75
2016-04-15T09:18:43.046Z,983.81
2016-04-15T09:19:43.064Z,983.84
2016-04-15T09:20:43.066Z,983.9
2016-04-15T09:21:43.054Z,983.92
2016-04-15T09:22:43.057Z,983.88
2016-04-15T09:23:43.060Z,983.91
2016-04-15T09:24:43.062Z,983.91
2016-04-15T09:25:43.066Z,983.89
2016-04-15T09:26:43.083Z,983.86
2016-04-15T09:27:43.086Z,983.84
2016-04-15T09:28:43.073Z,983.82
2016-04-15T09:29:43.076Z,983.85
2016-04-15T09:30:43.079Z,983.83
2016-04-15T09:31:43.081Z,983.82
2016-04-15T09:32:43.084Z,983.82
2016-04-15T09:33:43.086Z,983.78
2016-04-15T09:34:43.089Z,983.82
2016-04-15T09:35:43.076Z,983.73
2016-04-15T09:36:43.079Z,983.74
2016-04-15T09:37:43.082Z,983.8
2016-04-15T09:38:43.084Z,983.77
2016-04-15T09:39:43.087Z,983.78
2016-04-15T09:40:43.089Z,983.75
2016-04-15T09:41:43.092Z,983.78
2016-04-15T09:42:43.095Z,983.77
2016-04-15T09:43:43.097Z,983.77
2016-04-15T09:44:43.100Z,983.74
2016-04-15T09:45:43.102Z,983.78
2016-04-15T09:46:43.089Z,983.84
2016-04-15T09:47:43.092Z,983.79
2016-04-15T09:48:43.111Z,983.81
2016-04-15T09:49:43.098Z,983.86
2016-04-15T09:50:43.100Z,983.85
2016-04-15T09:51:43.103Z,983.8
2016-04-15T09:52:43.121Z,983.67
2016-04-15T09:53:43.108Z,983.73
2016-04-15T09:54:43.111Z,983.67
2016-04-15T09:55:43.130Z,983.59
2016-04-15T09:56:43.117Z,983.57
2016-04-15T09:57:43.136Z,983.56
2016-04-15T09:58:43.138Z,983.52
2016-04-15T09:59:43.125Z,983.58
2016-04-15T10:00:43.127Z,983.63
2016-04-15T10:01:43.130Z,983.51
2016-04-15T10:02:43.132Z,983.51
2016-04-15T10:03:43.151Z,983.53
2016-04-15T10:04:43.138Z,983.54
2016-04-15T10:05:43.140Z,983.5
2016-04-15T10:06:43.143Z,983.54
2016-04-15T10:07:43.146Z,983.51
2016-04-15T10:08:43.165Z,983.5
2016-04-15T10:09:43.152Z,983.52
2016-04-15T10:10:43.154Z,983.49
2016-04-15T10:11:43.157Z,983.5
2016-04-15T10:12:43.159Z,983.43
2016-04-15T10:13:43.162Z,983.51
2016-04-15T10:14:43.181Z,983.55
2016-04-15T10:15:43.152Z,983.53
2016-04-15T10:16:43.295Z,983.63
2016-04-15T10:17:43.172Z,983.67
2016-04-15T10:18:43.160Z,983.65
2016-04-15T10:19:43.163Z,983.6
2016-04-15T10:20:43.166Z,983.62
2016-04-15T10:21:43.169Z,983.62
2016-04-15T10:22:43.171Z,983.54
2016-04-15T10:23:43.174Z,983.53
2016-04-15T10:24:43.176Z,983.57
2016-04-15T10:25:43.179Z,983.6
2016-04-15T10:26:43.166Z,983.64
2016-04-15T10:27:43.185Z,983.66
2016-04-15T10:28:43.172Z,983.66
2016-04-15T10:29:43.175Z,983.68
2016-04-15T10:30:43.193Z,983.65
2016-04-15T10:31:43.493Z,983.65
2016-04-15T10:32:43.182Z,983.64
2016-04-15T10:33:43.185Z,983.68
2016-04-15T10:34:43.187Z,983.63
2016-04-15T10:35:43.190Z,983.64
2016-04-15T10:36:43.193Z,983.65
2016-04-15T10:37:43.195Z,983.65
2016-04-15T10:38:43.199Z,983.61
2016-04-15T10:39:43.201Z,983.57
2016-04-15T10:40:43.204Z,983.54
2016-04-15T10:41:43.206Z,983.56
2016-04-15T10:42:43.194Z,983.61
2016-04-15T10:43:43.212Z,983.66
2016-04-15T10:44:43.214Z,983.73
2016-04-15T10:45:43.233Z,983.8
2016-04-15T10:46:43.204Z,983.79
2016-04-15T10:47:43.207Z,983.79
2016-04-15T10:48:43.210Z,983.81
2016-04-15T10:49:43.212Z,983.74
2016-04-15T10:50:43.216Z,983.7
2016-04-15T10:51:43.218Z,983.69
2016-04-15T10:52:43.221Z,983.62
2016-04-15T10:53:43.223Z,983.62
2016-04-15T10:54:43.226Z,983.58
2016-04-15T10:55:43.213Z,983.54
2016-04-15T10:56:43.216Z,983.48
2016-04-15T10:57:43.235Z,983.43
2016-04-15T10:58:43.222Z,983.4
2016-04-15T10:59:43.224Z,983.4
2016-04-15T11:00:43.227Z,983.48
2016-04-15T11:01:43.230Z,983.51
2016-04-15T11:02:43.232Z,983.5
2016-04-15T11:03:43.251Z,983.5
2016-04-15T11:04:43.237Z,983.48
2016-04-15T11:05:43.240Z,983.45
2016-04-15T11:06:43.242Z,983.5
2016-04-15T11:07:43.261Z,983.47
2016-04-15T11:08:43.232Z,983.47
2016-04-15T11:09:43.251Z,983.49
2016-04-15T11:10:43.238Z,983.53
2016-04-15T11:11:43.240Z,983.55
2016-04-15T11:12:43.243Z,983.61
2016-04-15T11:13:43.246Z,983.65
2016-04-15T11:14:43.248Z,983.64
2016-04-15T11:15:43.251Z,983.75
2016-04-15T11:16:43.253Z,983.72
2016-04-15T11:17:43.256Z,983.66
2016-04-15T11:18:43.243Z,983.58
2016-04-15T11:19:43.246Z,983.58
2016-04-15T11:20:43.249Z,983.53
2016-04-15T11:21:43.267Z,983.52
2016-04-15T11:22:43.255Z,983.57
2016-04-15T11:23:43.257Z,983.5
2016-04-15T11:24:43.260Z,983.46
2016-04-15T11:25:43.262Z,983.43
2016-04-15T11:26:43.265Z,983.39
2016-04-15T11:27:43.268Z,983.41
2016-04-15T11:28:43.271Z,983.44
2016-04-15T11:29:43.274Z,983.34
2016-04-15T11:30:43.277Z,983.45
2016-04-15T11:31:43.279Z,983.39
2016-04-15T11:32:43.282Z,983.39
2016-04-15T11:33:43.284Z,983.38
2016-04-15T11:34:43.287Z,983.3
2016-04-15T11:35:43.290Z,983.33
2016-04-15T11:36:43.354Z,983.32
2016-04-15T11:37:43.295Z,983.29
2016-04-15T11:38:43.297Z,983.23
2016-04-15T11:39:43.301Z,983.33
2016-04-15T11:40:43.303Z,983.35
2016-04-15T11:41:44.087Z,983.35
2016-04-15T11:42:43.308Z,983.38
2016-04-15T11:43:43.311Z,983.4
2016-04-15T11:44:43.345Z,983.4
2016-04-15T11:45:43.316Z,983.37
2016-04-15T11:46:43.334Z,983.4
2016-04-15T11:47:43.322Z,983.48
2016-04-15T11:48:43.339Z,983.46
2016-04-15T11:49:43.327Z,983.4
2016-04-15T11:50:43.330Z,983.44
2016-04-15T11:51:43.332Z,983.47
2016-04-15T11:52:43.335Z,983.5
2016-04-15T11:53:43.338Z,983.35
2016-04-15T11:54:43.340Z,983.43
2016-04-15T11:55:43.343Z,983.46
2016-04-15T11:56:43.346Z,983.31
2016-04-15T11:57:43.349Z,983.29
2016-04-15T11:58:43.352Z,983.24
2016-04-15T11:59:43.354Z,983.14
2016-04-15T12:00:43.357Z,983.11
2016-04-15T12:01:43.374Z,983.07
2016-04-15T12:02:43.362Z,983.07
2016-04-15T12:03:43.364Z,983.04
2016-04-15T12:04:43.367Z,983.06
2016-04-15T12:05:43.370Z,983.04
2016-04-15T12:06:43.373Z,983.1
2016-04-15T12:07:43.375Z,983.14
2016-04-15T12:08:43.394Z,983.19
2016-04-15T12:09:43.383Z,983.21
2016-04-15T12:10:43.386Z,983.11
2016-04-15T12:11:43.436Z,983.06
2016-04-15T12:12:43.391Z,983.02
2016-04-15T12:13:43.394Z,983.1
2016-04-15T12:14:43.396Z,983.12
2016-04-15T12:15:43.399Z,983.04
2016-04-15T12:16:43.416Z,983.03
2016-04-15T12:17:43.420Z,983.02
2016-04-15T12:18:43.407Z,982.97
2016-04-15T12:19:43.410Z,982.96
2016-04-15T12:20:43.428Z,982.97
2016-04-15T12:21:43.415Z,982.97
2016-04-15T12:22:43.418Z,982.98
2016-04-15T12:23:43.420Z,982.9
2016-04-15T12:24:43.423Z,982.95
2016-04-15T12:25:43.435Z,982.91
2016-04-15T12:26:43.437Z,982.94
2016-04-15T12:27:43.440Z,982.89
2016-04-15T12:28:43.443Z,982.95
2016-04-15T12:29:43.446Z,982.86
2016-04-15T12:30:43.449Z,982.87
2016-04-15T12:31:43.451Z,982.88